createdAt,value
2023-04-14T00:03:41.348Z,0.88715
2023-04-14T00:08:42.738Z,0
2023-04-14T00:13:44.368Z,0
2023-04-14T00:18:45.728Z,0
2023-04-14T00:23:47.223Z,0
2023-04-14T00:28:48.549Z,0
2023-04-14T00:33:49.972Z,0
2023-04-14T00:38:51.664Z,0.88715
2023-04-14T00:43:52.990Z,0
2023-04-14T00:48:54.585Z,0
2023-04-14T00:53:56.369Z,0
2023-04-14T00:59:00.484Z,0.88715
2023-04-14T01:04:05.295Z,0
2023-04-14T01:09:11.231Z,0
2023-04-14T01:14:14.152Z,0
2023-04-14T01:19:16.131Z,0
2023-04-14T01:24:21.105Z,0
2023-04-14T01:29:22.698Z,0
2023-04-14T01:34:30.801Z,0
2023-04-14T01:39:37.066Z,0
2023-04-14T01:44:38.404Z,0
2023-04-14T01:49:39.699Z,0
2023-04-14T01:54:41.373Z,0
2023-04-14T01:59:42.819Z,0
2023-04-14T02:04:44.233Z,0
2023-04-14T02:09:45.532Z,0
2023-04-14T02:14:46.912Z,0
2023-04-14T02:19:48.368Z,0
2023-04-14T02:24:49.768Z,0
2023-04-14T02:29:51.287Z,0
2023-04-14T02:34:57.861Z,0
2023-04-14T02:39:59.748Z,0
2023-04-14T02:45:01.354Z,0.88715
2023-04-14T02:50:02.951Z,0.88715
2023-04-14T02:55:04.766Z,0
2023-04-14T03:00:06.473Z,0
2023-04-14T03:05:08.000Z,0
2023-04-14T03:10:09.613Z,0
2023-04-14T03:15:10.953Z,0
2023-04-14T03:20:12.209Z,0.88715
2023-04-14T03:25:13.604Z,0.88715
2023-04-14T03:30:15.124Z,0
2023-04-14T03:35:16.498Z,0
2023-04-14T03:40:18.080Z,0.88715
2023-04-14T03:45:23.867Z,0.88715
2023-04-14T03:50:29.821Z,0.88715
2023-04-14T03:55:36.361Z,0.88715
2023-04-14T04:00:46.017Z,0
2023-04-14T04:05:55.926Z,2.3237
2023-04-14T04:10:59.958Z,3.85445
2023-04-14T04:16:10.046Z,3.4304
2023-04-14T04:21:13.974Z,10.7704
2023-04-14T04:26:16.452Z,21.7804
2023-04-14T04:31:18.173Z,40.37
2023-04-14T04:36:25.470Z,58.77515
2023-04-14T04:41:35.797Z,81.27435
2023-04-14T04:46:47.067Z,101.44985
2023-04-14T04:51:52.784Z,117.34685
2023-04-14T04:56:56.434Z,125.8487
2023-04-14T05:01:59.896Z,146.81715
2023-04-14T05:07:01.777Z,159.5975
2023-04-14T05:12:08.607Z,168.8923
2023-04-14T05:17:17.663Z,183.62745
2023-04-14T05:22:23.201Z,184.12565
2023-04-14T05:27:36.705Z,201.1845
2023-04-14T05:32:41.731Z,206.4404
2023-04-14T05:37:44.356Z,214.1493
2023-04-14T05:42:47.598Z,217.3401
2023-04-14T05:47:56.021Z,257.28605
2023-04-14T05:53:06.953Z,318.25745
2023-04-14T05:58:23.486Z,371.3355
2023-04-14T06:03:32.962Z,390.5716
2023-04-14T06:08:39.141Z,446.8766
2023-04-14T06:13:52.528Z,495.52785
2023-04-14T06:19:01.702Z,519.7061
2023-04-14T06:24:13.971Z,535.3825
2023-04-14T06:29:17.288Z,549.89705
2023-04-14T06:34:22.025Z,567.89715
2023-04-14T06:39:28.611Z,593.6613
2023-04-14T06:44:39.852Z,599.37925
2023-04-14T06:49:41.630Z,622.2112
2023-04-14T06:54:42.972Z,626.34325
2023-04-14T06:59:44.472Z,636.52415
2023-04-14T07:04:46.064Z,649.8217
2023-04-14T07:09:47.449Z,658.0478
2023-04-14T07:14:48.832Z,665.11205
2023-04-14T07:19:50.604Z,677.1926
2023-04-14T07:24:52.196Z,678.208
2023-04-14T07:29:53.864Z,697.3148
2023-04-14T07:34:56.280Z,705.9098
2023-04-14T07:39:59.033Z,715.66665
2023-04-14T07:45:00.703Z,728.30055
2023-04-14T07:50:02.507Z,742.4652
2023-04-14T07:55:04.556Z,751.1895
2023-04-14T08:00:06.170Z,752.4635
2023-04-14T08:05:07.816Z,761.74115
2023-04-14T08:10:09.601Z,772.734
2023-04-14T08:15:11.499Z,773.8977
2023-04-14T08:20:13.037Z,794.6094
2023-04-14T08:25:14.572Z,806.5245
2023-04-14T08:30:16.495Z,819.8962
2023-04-14T08:35:39.343Z,833.34205
2023-04-14T08:40:43.047Z,846.10525
2023-04-14T08:45:45.129Z,860.1596
2023-04-14T08:50:46.863Z,873.2917
2023-04-14T08:55:48.585Z,869.4391
2023-04-14T09:00:50.425Z,895.6463
2023-04-14T09:05:52.181Z,909.33175
2023-04-14T09:10:53.933Z,917.3924
2023-04-14T09:15:55.711Z,926.67005
2023-04-14T09:21:28.964Z,925.5652
2023-04-14T09:26:52.839Z,939.1955
2023-04-14T09:31:54.311Z,957.5835
2023-04-14T09:36:56.034Z,976.02665
2023-04-14T09:41:57.593Z,998.1398
2023-04-14T09:46:59.167Z,1008.52415
2023-04-14T09:52:00.659Z,1021.59715
2023-04-14T09:57:02.263Z,1044.56235
2023-04-14T10:02:03.992Z,1066.12215
2023-04-14T10:07:05.411Z,1091.2968
2023-04-14T10:12:08.300Z,1113.28065
2023-04-14T10:17:11.019Z,1152.1389
2023-04-14T10:22:12.333Z,1189.5957
2023-04-14T10:27:14.095Z,1225.87165
2023-04-14T10:32:20.769Z,1260.39625
2023-04-14T10:37:22.505Z,1287.56185
2023-04-14T10:42:24.250Z,1316.81155
2023-04-14T10:47:26.135Z,1358.1038
2023-04-14T10:52:27.722Z,1378.76035
2023-04-14T10:57:29.231Z,1426.6168
2023-04-14T11:02:31.341Z,1465.21645
2023-04-14T11:07:33.198Z,1503.13345
2023-04-14T11:12:34.835Z,1532.36415
2023-04-14T11:17:36.828Z,1566.24225
2023-04-14T11:22:38.542Z,1620.2217
2023-04-14T11:27:39.906Z,1641.6142
2023-04-14T11:32:41.696Z,1668.70565
2023-04-14T11:37:43.287Z,1706.97255
2023-04-14T11:42:44.734Z,1728.23575
2023-04-14T11:47:46.145Z,1749.8127
2023-04-14T11:52:47.505Z,1766.85255
2023-04-14T11:57:48.883Z,1782.934
2023-04-14T12:02:50.388Z,1804.6764
2023-04-14T12:07:52.089Z,1810.9097
2023-04-14T12:12:54.303Z,1846.0961
2023-04-14T12:17:57.058Z,1854.3755
2023-04-14T12:22:58.920Z,1868.0591
2023-04-14T12:28:00.766Z,1879.7499
2023-04-14T12:33:02.662Z,1904.9037
2023-04-14T12:38:04.319Z,1912.4643
2023-04-14T12:43:05.980Z,1929.35585
2023-04-14T12:48:07.709Z,1919.43355
2023-04-14T12:53:09.665Z,1927.58365
2023-04-14T12:58:11.312Z,1937.55925
2023-04-14T13:03:13.300Z,1925.8476
2023-04-14T13:08:15.103Z,1925.86475
2023-04-14T13:13:16.780Z,1925.513
2023-04-14T13:18:18.672Z,1927.24535
2023-04-14T13:23:20.630Z,1902.9378
2023-04-14T13:28:22.262Z,1890.96755
2023-04-14T13:33:24.110Z,1874
2023-04-14T13:38:25.903Z,1867.39595
2023-04-14T13:43:27.751Z,1844.72945
2023-04-14T13:48:29.475Z,1828.3514
2023-04-14T13:53:31.358Z,1799.13785
2023-04-14T13:58:32.952Z,1788.0157
2023-04-14T14:03:34.907Z,1763.32025
2023-04-14T14:08:36.802Z,1738.20075
2023-04-14T14:13:38.666Z,1700.37505
2023-04-14T14:18:40.292Z,1659.3034
2023-04-14T14:23:41.784Z,1622.74985
2023-04-14T14:28:43.100Z,1533.9872
2023-04-14T14:33:44.424Z,1458.7237
2023-04-14T14:38:46.046Z,1380.60215
2023-04-14T14:43:47.587Z,1285.6062
2023-04-14T14:48:49.212Z,1185.46465
2023-04-14T14:53:50.502Z,1009.41495
2023-04-14T14:58:51.980Z,822.0605
2023-04-14T15:03:53.417Z,643.74225
2023-04-14T15:08:55.163Z,486.5959
2023-04-14T15:13:56.602Z,358.40265
2023-04-14T15:18:57.953Z,262.80635
2023-04-14T15:24:00.107Z,209.5338
2023-04-14T15:29:02.178Z,149.3282
2023-04-14T15:34:04.337Z,76.2049
2023-04-14T15:39:06.477Z,65.0103
2023-04-14T15:44:08.203Z,54.5708
2023-04-14T15:49:09.881Z,29.6186
2023-04-14T15:54:11.336Z,16.8934
2023-04-14T15:59:12.989Z,9.1845
2023-04-14T16:04:14.656Z,3.79245
2023-04-14T16:09:16.392Z,1.6592
2023-04-14T16:14:18.058Z,0.47405
2023-04-14T16:19:20.053Z,0
2023-04-14T16:24:22.521Z,0.88715
2023-04-14T16:29:24.126Z,0.88715
2023-04-14T16:34:25.847Z,0.88715
2023-04-14T16:39:27.549Z,0
2023-04-14T16:44:29.568Z,0.88715
2023-04-14T16:49:31.416Z,0
2023-04-14T16:54:33.114Z,0
2023-04-14T16:59:34.805Z,0
2023-04-14T17:04:36.706Z,0
2023-04-14T17:09:38.450Z,0
2023-04-14T17:14:40.049Z,0
2023-04-14T17:19:41.517Z,0
2023-04-14T17:24:43.228Z,0
2023-04-14T17:29:44.795Z,0
2023-04-14T17:34:46.202Z,0
2023-04-14T17:39:47.660Z,0
2023-04-14T17:44:49.111Z,0
2023-04-14T17:49:50.376Z,0
2023-04-14T17:54:51.587Z,0
2023-04-14T17:59:53.106Z,0.88715
2023-04-14T18:04:54.907Z,0.88715
2023-04-14T18:09:56.237Z,0
2023-04-14T18:14:57.588Z,0.88715
2023-04-14T18:19:59.361Z,0.88715
2023-04-14T18:25:00.719Z,0
2023-04-14T18:30:01.996Z,0
2023-04-14T18:35:03.501Z,0
2023-04-14T18:40:04.934Z,0
2023-04-14T18:45:06.213Z,0
2023-04-14T18:50:07.714Z,0
2023-04-14T18:55:09.232Z,0
2023-04-14T19:00:10.547Z,0
2023-04-14T19:05:12.266Z,0
2023-04-14T19:10:13.696Z,0.88715
2023-04-14T19:15:15.394Z,0
2023-04-14T19:20:17.114Z,0
2023-04-14T19:25:18.452Z,0.88715
2023-04-14T19:30:20.011Z,0
2023-04-14T19:35:21.639Z,0
2023-04-14T19:40:23.074Z,0.88715
2023-04-14T19:45:24.535Z,0.88715
2023-04-14T19:50:26.063Z,0.88715
2023-04-14T19:55:27.371Z,0
2023-04-14T20:00:28.741Z,0.88715
2023-04-14T20:05:30.113Z,0
2023-04-14T20:10:31.780Z,0
2023-04-14T20:15:33.191Z,0
2023-04-14T20:20:34.607Z,0
2023-04-14T20:25:35.865Z,0
2023-04-14T20:30:37.207Z,0.88715
2023-04-14T20:35:38.603Z,0
2023-04-14T20:40:40.057Z,0
2023-04-14T20:45:41.486Z,0
2023-04-14T20:50:42.980Z,0
2023-04-14T20:55:44.249Z,0
2023-04-14T21:00:45.586Z,0
2023-04-14T21:05:47.120Z,0
2023-04-14T21:11:16.225Z,0
2023-04-14T21:16:19.865Z,0
2023-04-14T21:21:21.453Z,0
2023-04-14T21:26:23.036Z,0
2023-04-14T21:31:24.826Z,0
2023-04-14T21:36:26.809Z,0
2023-04-14T21:41:28.404Z,0
2023-04-14T21:46:30.034Z,0
2023-04-14T21:51:31.736Z,0
2023-04-14T21:56:33.328Z,0
2023-04-14T22:01:35.004Z,0
2023-04-14T22:06:37.057Z,0
2023-04-14T22:11:39.081Z,0
2023-04-14T22:16:40.735Z,0
2023-04-14T22:21:42.443Z,0
2023-04-14T22:26:43.844Z,0
2023-04-14T22:31:45.154Z,0.88715
2023-04-14T22:36:46.431Z,0
2023-04-14T22:41:47.717Z,0
2023-04-14T22:46:49.061Z,0
2023-04-14T22:51:50.624Z,0
2023-04-14T22:56:51.863Z,0
2023-04-14T23:01:53.341Z,0
2023-04-14T23:06:54.779Z,0
2023-04-14T23:11:55.997Z,0
2023-04-14T23:16:57.377Z,0.88715
2023-04-14T23:21:58.981Z,0
2023-04-14T23:27:00.256Z,0.88715
2023-04-14T23:32:01.800Z,0
2023-04-14T23:37:03.538Z,0
2023-04-14T23:42:05.008Z,0
2023-04-14T23:47:08.448Z,0
2023-04-14T23:52:10.132Z,0
2023-04-14T23:57:11.776Z,0
